EWG4SX LOWI-EKCH
Flight info
| Callsign | EWG4SX |
|---|---|
| Flight time | 1h 29m |
| Altitude | 34000 |
| Route | KOGOL M726 KEMES DCT EMBOX/N0434F350 DCT NOBRI/N0428F340 M726 ROSOK Q296 MONAK |
| Aircraft | A320/M-SDE3FGHIRWY/LB1 |
Departure
| Time | 2026-05-06 18:40 |
|---|---|
| Airport | Innsbruck Airport (LOWI) |
Arrival
| Time | 2026-05-06 20:10 |
|---|---|
| Airport | Copenhagen Kastrup Airport (EKCH) |
| Time | Latitude | Longitude | Altitude | Speed | Heading |
|---|---|---|---|---|---|
| 2026-05-06 18:01 | 47.25795 | 11.34812 | 1908 ft | 0 kts | 171° |
| 2026-05-06 18:02 | 47.25795 | 11.34811 | 1908 ft | 0 kts | 171° |
| 2026-05-06 18:02 | 47.25795 | 11.34812 | 1908 ft | 0 kts | 171° |
| 2026-05-06 18:02 | 47.25795 | 11.34811 | 1908 ft | 0 kts | 171° |
| 2026-05-06 18:17 | 47.25796 | 11.34811 | 1908 ft | 0 kts | 171° |
| 2026-05-06 18:22 | 47.25811 | 11.34808 | 1895 ft | 4 kts | 168° |
| 2026-05-06 18:22 | 47.25837 | 11.34797 | 1896 ft | 4 kts | 146° |
| 2026-05-06 18:22 | 47.25849 | 11.34775 | 1897 ft | 1 kts | 81° |
| 2026-05-06 18:22 | 47.25849 | 11.34774 | 1897 ft | 3 kts | 81° |
| 2026-05-06 18:25 | 47.25852 | 11.34802 | 1909 ft | 7 kts | 81° |
| 2026-05-06 18:25 | 47.25864 | 11.34909 | 1908 ft | 13 kts | 81° |
| 2026-05-06 18:25 | 47.25873 | 11.34996 | 1907 ft | 3 kts | 81° |
| 2026-05-06 18:26 | 47.25873 | 11.34999 | 1907 ft | 0 kts | 81° |
| 2026-05-06 18:26 | 47.25881 | 11.35070 | 1896 ft | 14 kts | 80° |
| 2026-05-06 18:27 | 47.25894 | 11.35194 | 1897 ft | 11 kts | 81° |
| 2026-05-06 18:27 | 47.25897 | 11.35217 | 1901 ft | 0 kts | 81° |
| 2026-05-06 18:30 | 47.25901 | 11.35252 | 1907 ft | 5 kts | 76° |
| 2026-05-06 18:30 | 47.25913 | 11.35281 | 1895 ft | 0 kts | 41° |
| 2026-05-06 18:34 | 47.25927 | 11.35289 | 1903 ft | 4 kts | 9° |
| 2026-05-06 18:35 | 47.25961 | 11.35281 | 1904 ft | 6 kts | 350° |
| 2026-05-06 18:35 | 47.25983 | 11.35276 | 1900 ft | 0 kts | 351° |
| 2026-05-06 18:38 | 47.26000 | 11.35272 | 1897 ft | 9 kts | 351° |
| 2026-05-06 18:38 | 47.26107 | 11.35276 | 1897 ft | 14 kts | 45° |
| 2026-05-06 18:39 | 47.26133 | 11.35440 | 1898 ft | 22 kts | 82° |
| 2026-05-06 18:39 | 47.26116 | 11.35622 | 1895 ft | 15 kts | 129° |
| 2026-05-06 18:39 | 47.26146 | 11.35720 | 1901 ft | 10 kts | 333° |
| 2026-05-06 18:40 | 47.26125 | 11.35388 | 1896 ft | 64 kts | 260° |
| 2026-05-06 18:40 | 47.25947 | 11.33892 | 1917 ft | 154 kts | 257° |
| 2026-05-06 18:40 | 47.25784 | 11.32796 | 2151 ft | 170 kts | 258° |
| 2026-05-06 18:40 | 47.25853 | 11.30512 | 3300 ft | 165 kts | 278° |
| 2026-05-06 18:41 | 47.26033 | 11.28844 | 3795 ft | 171 kts | 277° |
| 2026-05-06 18:41 | 47.26175 | 11.27083 | 4336 ft | 172 kts | 275° |
| 2026-05-06 18:41 | 47.26157 | 11.25919 | 4677 ft | 174 kts | 255° |
| 2026-05-06 18:41 | 47.25509 | 11.24448 | 5141 ft | 174 kts | 215° |
| 2026-05-06 18:42 | 47.24020 | 11.23660 | 5818 ft | 171 kts | 176° |
| 2026-05-06 18:42 | 47.23245 | 11.23861 | 6190 ft | 172 kts | 158° |
| 2026-05-06 18:42 | 47.22290 | 11.24903 | 6711 ft | 176 kts | 126° |
| 2026-05-06 18:42 | 47.21865 | 11.26599 | 7233 ft | 181 kts | 95° |
| 2026-05-06 18:43 | 47.22118 | 11.28408 | 7711 ft | 184 kts | 63° |
| 2026-05-06 18:43 | 47.22738 | 11.30079 | 8038 ft | 190 kts | 64° |
| 2026-05-06 18:43 | 47.23369 | 11.31801 | 8531 ft | 192 kts | 65° |
| 2026-05-06 18:43 | 47.23995 | 11.33556 | 8997 ft | 195 kts | 65° |
| 2026-05-06 18:44 | 47.24624 | 11.35328 | 9480 ft | 196 kts | 65° |
| 2026-05-06 18:44 | 47.25200 | 11.37145 | 9889 ft | 197 kts | 73° |
| 2026-05-06 18:44 | 47.25658 | 11.39116 | 10102 ft | 213 kts | 76° |
| 2026-05-06 18:44 | 47.26123 | 11.41292 | 10240 ft | 234 kts | 76° |
| 2026-05-06 18:45 | 47.26625 | 11.43683 | 10374 ft | 255 kts | 76° |
| 2026-05-06 18:45 | 47.27170 | 11.46262 | 10587 ft | 274 kts | 75° |
| 2026-05-06 18:45 | 47.27753 | 11.48998 | 11077 ft | 284 kts | 75° |
| 2026-05-06 18:45 | 47.28356 | 11.51793 | 11690 ft | 289 kts | 75° |
| 2026-05-06 18:46 | 47.28972 | 11.54652 | 12224 ft | 300 kts | 75° |
| 2026-05-06 18:46 | 47.29624 | 11.57694 | 12429 ft | 323 kts | 75° |
| 2026-05-06 18:46 | 47.30406 | 11.60921 | 12620 ft | 348 kts | 64° |
| 2026-05-06 18:46 | 47.31924 | 11.63813 | 12898 ft | 367 kts | 39° |
| 2026-05-06 18:47 | 47.34161 | 11.65644 | 13454 ft | 372 kts | 14° |
| 2026-05-06 18:47 | 47.36713 | 11.66041 | 14035 ft | 370 kts | 350° |
| 2026-05-06 18:47 | 47.39171 | 11.65024 | 14592 ft | 368 kts | 334° |
| 2026-05-06 18:47 | 47.41549 | 11.63592 | 15255 ft | 371 kts | 334° |
| 2026-05-06 18:48 | 47.43944 | 11.62130 | 15687 ft | 374 kts | 334° |
| 2026-05-06 18:48 | 47.46321 | 11.60681 | 15800 ft | 375 kts | 334° |
| 2026-05-06 18:48 | 47.48765 | 11.59195 | 15822 ft | 374 kts | 334° |
| 2026-05-06 18:48 | 47.51170 | 11.57739 | 15830 ft | 375 kts | 334° |
| 2026-05-06 18:49 | 47.53607 | 11.56259 | 16017 ft | 387 kts | 334° |
| 2026-05-06 18:49 | 47.56106 | 11.54747 | 16909 ft | 383 kts | 334° |
| 2026-05-06 18:49 | 47.58582 | 11.53251 | 17600 ft | 385 kts | 334° |
| 2026-05-06 18:49 | 47.61074 | 11.51744 | 18192 ft | 389 kts | 335° |
| 2026-05-06 18:50 | 47.63587 | 11.50225 | 18715 ft | 392 kts | 335° |
| 2026-05-06 18:50 | 47.66117 | 11.48695 | 19224 ft | 394 kts | 335° |
| 2026-05-06 18:50 | 47.68667 | 11.47150 | 19721 ft | 398 kts | 335° |
| 2026-05-06 18:50 | 47.71198 | 11.45612 | 20211 ft | 400 kts | 335° |
| 2026-05-06 18:51 | 47.73783 | 11.44033 | 20693 ft | 404 kts | 334° |
| 2026-05-06 18:51 | 47.76388 | 11.42439 | 21179 ft | 407 kts | 334° |
| 2026-05-06 18:51 | 47.79017 | 11.40829 | 21661 ft | 410 kts | 334° |
| 2026-05-06 18:51 | 47.81659 | 11.39210 | 22142 ft | 413 kts | 334° |
| 2026-05-06 18:52 | 47.84324 | 11.37689 | 22621 ft | 417 kts | 340° |
| 2026-05-06 18:52 | 47.87168 | 11.36735 | 23095 ft | 422 kts | 350° |
| 2026-05-06 18:52 | 47.90107 | 11.36400 | 23537 ft | 426 kts | 355° |
| 2026-05-06 18:52 | 47.93080 | 11.36162 | 23918 ft | 428 kts | 354° |
| 2026-05-06 18:53 | 47.96060 | 11.35919 | 24292 ft | 431 kts | 354° |
| 2026-05-06 18:53 | 47.99067 | 11.35671 | 24665 ft | 433 kts | 354° |
| 2026-05-06 18:53 | 48.02082 | 11.35417 | 25037 ft | 436 kts | 354° |
| 2026-05-06 18:53 | 48.05120 | 11.35158 | 25385 ft | 439 kts | 354° |
| 2026-05-06 18:54 | 48.08171 | 11.34851 | 25729 ft | 440 kts | 352° |
| 2026-05-06 18:54 | 48.11223 | 11.34380 | 26065 ft | 441 kts | 350° |
| 2026-05-06 18:54 | 48.14278 | 11.33778 | 26385 ft | 444 kts | 349° |
| 2026-05-06 18:54 | 48.17342 | 11.33103 | 26720 ft | 446 kts | 348° |
| 2026-05-06 18:55 | 48.20419 | 11.32409 | 27051 ft | 449 kts | 348° |
| 2026-05-06 18:55 | 48.23522 | 11.31733 | 27445 ft | 452 kts | 349° |
| 2026-05-06 18:55 | 48.26645 | 11.31089 | 27792 ft | 455 kts | 349° |
| 2026-05-06 18:55 | 48.29804 | 11.30511 | 28119 ft | 458 kts | 351° |
| 2026-05-06 18:56 | 48.32978 | 11.30008 | 28448 ft | 461 kts | 351° |
| 2026-05-06 18:56 | 48.36180 | 11.29544 | 28763 ft | 464 kts | 352° |
| 2026-05-06 18:56 | 48.39406 | 11.29089 | 29074 ft | 466 kts | 352° |
| 2026-05-06 18:56 | 48.42646 | 11.28619 | 29372 ft | 469 kts | 351° |
| 2026-05-06 18:57 | 48.45896 | 11.28130 | 29663 ft | 471 kts | 351° |
| 2026-05-06 18:57 | 48.49167 | 11.27621 | 29936 ft | 474 kts | 351° |
| 2026-05-06 18:57 | 48.52455 | 11.27098 | 30169 ft | 476 kts | 351° |
| 2026-05-06 18:57 | 48.55752 | 11.26565 | 30396 ft | 478 kts | 351° |
| 2026-05-06 18:58 | 48.59071 | 11.26024 | 30636 ft | 480 kts | 351° |
| 2026-05-06 18:58 | 48.62356 | 11.25492 | 30846 ft | 483 kts | 351° |
| 2026-05-06 18:58 | 48.65701 | 11.24957 | 31114 ft | 483 kts | 351° |
| 2026-05-06 18:58 | 48.69081 | 11.24422 | 31444 ft | 483 kts | 351° |
| 2026-05-06 18:59 | 48.72430 | 11.23890 | 31768 ft | 483 kts | 351° |
| 2026-05-06 18:59 | 48.75730 | 11.23362 | 32079 ft | 483 kts | 351° |
| 2026-05-06 18:59 | 48.79108 | 11.22817 | 32394 ft | 483 kts | 351° |
| 2026-05-06 18:59 | 48.82406 | 11.22282 | 32719 ft | 483 kts | 351° |
| 2026-05-06 19:00 | 48.85729 | 11.21941 | 33016 ft | 485 kts | 357° |
| 2026-05-06 19:00 | 48.89111 | 11.21954 | 33337 ft | 485 kts | 357° |
| 2026-05-06 19:00 | 48.92487 | 11.21977 | 33655 ft | 485 kts | 357° |
| 2026-05-06 19:00 | 48.95863 | 11.22005 | 33822 ft | 484 kts | 357° |
| 2026-05-06 19:01 | 48.99207 | 11.22033 | 33843 ft | 478 kts | 357° |
| 2026-05-06 19:01 | 49.05833 | 11.22076 | 33839 ft | 475 kts | 357° |
| 2026-05-06 19:02 | 49.12458 | 11.22102 | 33869 ft | 478 kts | 357° |
| 2026-05-06 19:02 | 49.15792 | 11.22271 | 34055 ft | 483 kts | 2° |
| 2026-05-06 19:02 | 49.19140 | 11.22756 | 34302 ft | 483 kts | 3° |
| 2026-05-06 19:02 | 49.22485 | 11.23297 | 34562 ft | 483 kts | 4° |
| 2026-05-06 19:03 | 49.25824 | 11.23873 | 34830 ft | 482 kts | 4° |
| 2026-05-06 19:03 | 49.29153 | 11.24459 | 35092 ft | 482 kts | 4° |
| 2026-05-06 19:03 | 49.32482 | 11.25044 | 35355 ft | 481 kts | 4° |
| 2026-05-06 19:03 | 49.35800 | 11.25616 | 35611 ft | 480 kts | 4° |
| 2026-05-06 19:04 | 49.39123 | 11.26178 | 35786 ft | 480 kts | 4° |
| 2026-05-06 19:04 | 49.45749 | 11.27279 | 35812 ft | 478 kts | 4° |
| 2026-05-06 19:05 | 49.52339 | 11.28381 | 35810 ft | 478 kts | 4° |
| 2026-05-06 19:05 | 49.58966 | 11.29492 | 35812 ft | 479 kts | 4° |
| 2026-05-06 19:06 | 49.65575 | 11.30599 | 35811 ft | 478 kts | 4° |
| 2026-05-06 19:06 | 49.72179 | 11.31732 | 35811 ft | 478 kts | 4° |
| 2026-05-06 19:07 | 49.78758 | 11.32862 | 35820 ft | 478 kts | 4° |
| 2026-05-06 19:07 | 49.85370 | 11.33981 | 35822 ft | 478 kts | 4° |
| 2026-05-06 19:08 | 49.92026 | 11.35110 | 35823 ft | 478 kts | 4° |
| 2026-05-06 19:08 | 49.98591 | 11.36233 | 35825 ft | 478 kts | 4° |
| 2026-05-06 19:09 | 50.05195 | 11.37373 | 35824 ft | 477 kts | 4° |
| 2026-05-06 19:09 | 50.11796 | 11.38506 | 35825 ft | 477 kts | 3° |
| 2026-05-06 19:10 | 50.18387 | 11.39655 | 35823 ft | 478 kts | 4° |
| 2026-05-06 19:10 | 50.24984 | 11.40864 | 35822 ft | 477 kts | 4° |
| 2026-05-06 19:11 | 50.31609 | 11.42037 | 35826 ft | 477 kts | 3° |
| 2026-05-06 19:11 | 50.38178 | 11.43169 | 35822 ft | 477 kts | 3° |
| 2026-05-06 19:12 | 50.44769 | 11.44297 | 35817 ft | 477 kts | 3° |
| 2026-05-06 19:12 | 50.51360 | 11.45447 | 35812 ft | 477 kts | 3° |
| 2026-05-06 19:13 | 50.57950 | 11.46615 | 35804 ft | 477 kts | 3° |
| 2026-05-06 19:13 | 50.64540 | 11.47777 | 35806 ft | 476 kts | 3° |
| 2026-05-06 19:14 | 50.71126 | 11.48947 | 35804 ft | 476 kts | 3° |
| 2026-05-06 19:14 | 50.77706 | 11.50109 | 35807 ft | 476 kts | 3° |
| 2026-05-06 19:15 | 50.84286 | 11.51270 | 35807 ft | 475 kts | 3° |
| 2026-05-06 19:15 | 50.90853 | 11.52440 | 35809 ft | 475 kts | 3° |
| 2026-05-06 19:16 | 50.97423 | 11.53615 | 35804 ft | 475 kts | 3° |
| 2026-05-06 19:16 | 51.03983 | 11.54785 | 35804 ft | 474 kts | 3° |
| 2026-05-06 19:17 | 51.10486 | 11.55948 | 35805 ft | 473 kts | 3° |
| 2026-05-06 19:17 | 51.17025 | 11.57126 | 35810 ft | 473 kts | 3° |
| 2026-05-06 19:18 | 51.23563 | 11.58310 | 35811 ft | 472 kts | 3° |
| 2026-05-06 19:18 | 51.30083 | 11.59482 | 35809 ft | 472 kts | 3° |
| 2026-05-06 19:19 | 51.36600 | 11.60665 | 35814 ft | 471 kts | 3° |
| 2026-05-06 19:19 | 51.43106 | 11.61855 | 35811 ft | 470 kts | 3° |
| 2026-05-06 19:20 | 51.48505 | 11.62847 | 35810 ft | 470 kts | 3° |
| 2026-05-06 19:20 | 51.56099 | 11.64224 | 35803 ft | 469 kts | 3° |
| 2026-05-06 19:21 | 51.62586 | 11.65417 | 35808 ft | 469 kts | 4° |
| 2026-05-06 19:21 | 51.69065 | 11.66616 | 35817 ft | 469 kts | 4° |
| 2026-05-06 19:22 | 51.75547 | 11.67818 | 35819 ft | 468 kts | 4° |
| 2026-05-06 19:22 | 51.82022 | 11.69018 | 35821 ft | 468 kts | 4° |
| 2026-05-06 19:23 | 51.88453 | 11.70195 | 35820 ft | 468 kts | 4° |
| 2026-05-06 19:23 | 51.94912 | 11.71388 | 35828 ft | 467 kts | 4° |
| 2026-05-06 19:24 | 52.01368 | 11.72600 | 35831 ft | 467 kts | 4° |
| 2026-05-06 19:24 | 52.07816 | 11.73824 | 35833 ft | 467 kts | 4° |
| 2026-05-06 19:25 | 52.14264 | 11.75030 | 35836 ft | 466 kts | 4° |
| 2026-05-06 19:25 | 52.20707 | 11.76243 | 35846 ft | 466 kts | 4° |
| 2026-05-06 19:26 | 52.27139 | 11.77459 | 35844 ft | 465 kts | 4° |
| 2026-05-06 19:26 | 52.33575 | 11.78678 | 35846 ft | 465 kts | 4° |
| 2026-05-06 19:27 | 52.39998 | 11.79894 | 35847 ft | 465 kts | 4° |
| 2026-05-06 19:27 | 52.46419 | 11.81106 | 35852 ft | 464 kts | 4° |
| 2026-05-06 19:28 | 52.52836 | 11.82334 | 35857 ft | 464 kts | 4° |
| 2026-05-06 19:28 | 52.59252 | 11.83573 | 35856 ft | 464 kts | 4° |
| 2026-05-06 19:29 | 52.65621 | 11.84804 | 35862 ft | 464 kts | 4° |
| 2026-05-06 19:29 | 52.72033 | 11.86038 | 35862 ft | 464 kts | 4° |
| 2026-05-06 19:30 | 52.78434 | 11.87279 | 35865 ft | 463 kts | 4° |
| 2026-05-06 19:30 | 52.84839 | 11.88512 | 35868 ft | 463 kts | 4° |
| 2026-05-06 19:31 | 52.91239 | 11.89748 | 35868 ft | 463 kts | 4° |
| 2026-05-06 19:31 | 53.00844 | 11.91639 | 35875 ft | 463 kts | 4° |
| 2026-05-06 19:32 | 53.06173 | 11.92692 | 35875 ft | 464 kts | 4° |
| 2026-05-06 19:32 | 53.12579 | 11.93947 | 35879 ft | 464 kts | 4° |
| 2026-05-06 19:33 | 53.18987 | 11.95199 | 35883 ft | 464 kts | 4° |
| 2026-05-06 19:33 | 53.25408 | 11.96461 | 35887 ft | 464 kts | 4° |
| 2026-05-06 19:34 | 53.31814 | 11.97742 | 35899 ft | 464 kts | 4° |
| 2026-05-06 19:34 | 53.38239 | 11.99027 | 35903 ft | 465 kts | 4° |
| 2026-05-06 19:35 | 53.44644 | 12.00305 | 35906 ft | 465 kts | 4° |
| 2026-05-06 19:35 | 53.47848 | 12.00937 | 35638 ft | 463 kts | 4° |
| 2026-05-06 19:35 | 53.51040 | 12.01567 | 35040 ft | 462 kts | 4° |
| 2026-05-06 19:36 | 53.54210 | 12.02204 | 34601 ft | 457 kts | 4° |
| 2026-05-06 19:36 | 53.57362 | 12.02842 | 34163 ft | 453 kts | 4° |
| 2026-05-06 19:36 | 53.60478 | 12.03476 | 33705 ft | 449 kts | 4° |
| 2026-05-06 19:36 | 53.63569 | 12.04107 | 33180 ft | 446 kts | 4° |
| 2026-05-06 19:37 | 53.66639 | 12.04730 | 32644 ft | 443 kts | 4° |
| 2026-05-06 19:37 | 53.69692 | 12.05346 | 32117 ft | 440 kts | 5° |
| 2026-05-06 19:37 | 53.72721 | 12.05956 | 31603 ft | 437 kts | 5° |
| 2026-05-06 19:37 | 53.75731 | 12.06561 | 31084 ft | 434 kts | 5° |
| 2026-05-06 19:38 | 53.78720 | 12.07160 | 30598 ft | 431 kts | 5° |
| 2026-05-06 19:38 | 53.81689 | 12.07755 | 30108 ft | 428 kts | 6° |
| 2026-05-06 19:38 | 53.84642 | 12.08355 | 29553 ft | 425 kts | 6° |
| 2026-05-06 19:38 | 53.87568 | 12.08958 | 28982 ft | 422 kts | 6° |
| 2026-05-06 19:39 | 53.90466 | 12.09556 | 28420 ft | 419 kts | 6° |
| 2026-05-06 19:39 | 53.93351 | 12.10146 | 27874 ft | 416 kts | 6° |
| 2026-05-06 19:39 | 53.96204 | 12.10731 | 27333 ft | 412 kts | 6° |
| 2026-05-06 19:39 | 53.99047 | 12.11311 | 26807 ft | 409 kts | 6° |
| 2026-05-06 19:40 | 54.01863 | 12.11886 | 26290 ft | 406 kts | 6° |
| 2026-05-06 19:40 | 54.04658 | 12.12458 | 25783 ft | 403 kts | 6° |
| 2026-05-06 19:40 | 54.07432 | 12.13028 | 25281 ft | 400 kts | 6° |
| 2026-05-06 19:40 | 54.10184 | 12.13594 | 24798 ft | 397 kts | 6° |
| 2026-05-06 19:41 | 54.12918 | 12.14161 | 24313 ft | 394 kts | 6° |
| 2026-05-06 19:41 | 54.15632 | 12.14723 | 23838 ft | 391 kts | 5° |
| 2026-05-06 19:41 | 54.18328 | 12.15280 | 23349 ft | 389 kts | 5° |
| 2026-05-06 19:41 | 54.21004 | 12.15833 | 22801 ft | 386 kts | 5° |
| 2026-05-06 19:42 | 54.23665 | 12.16384 | 22261 ft | 384 kts | 5° |
| 2026-05-06 19:42 | 54.26317 | 12.16937 | 21733 ft | 383 kts | 5° |
| 2026-05-06 19:42 | 54.28956 | 12.17491 | 21204 ft | 381 kts | 5° |
| 2026-05-06 19:42 | 54.31584 | 12.18040 | 20691 ft | 380 kts | 5° |
| 2026-05-06 19:43 | 54.34208 | 12.18585 | 20186 ft | 379 kts | 5° |
| 2026-05-06 19:43 | 54.36797 | 12.19124 | 19939 ft | 370 kts | 4° |
| 2026-05-06 19:43 | 54.39306 | 12.19651 | 19936 ft | 357 kts | 4° |
| 2026-05-06 19:43 | 54.41763 | 12.20026 | 19944 ft | 351 kts | 354° |
| 2026-05-06 19:44 | 54.44079 | 12.19172 | 19942 ft | 343 kts | 332° |
| 2026-05-06 19:44 | 54.46019 | 12.16909 | 19947 ft | 336 kts | 310° |
| 2026-05-06 19:44 | 54.47277 | 12.13607 | 19943 ft | 329 kts | 290° |
| 2026-05-06 19:44 | 54.48034 | 12.09917 | 19597 ft | 326 kts | 285° |
| 2026-05-06 19:45 | 54.48719 | 12.06209 | 19181 ft | 325 kts | 285° |
| 2026-05-06 19:45 | 54.49394 | 12.02508 | 18780 ft | 323 kts | 285° |
| 2026-05-06 19:45 | 54.50063 | 11.98832 | 18412 ft | 321 kts | 285° |
| 2026-05-06 19:45 | 54.50807 | 11.95213 | 18010 ft | 322 kts | 295° |
| 2026-05-06 19:46 | 54.52218 | 11.92172 | 17605 ft | 326 kts | 318° |
| 2026-05-06 19:46 | 54.54190 | 11.90369 | 17211 ft | 330 kts | 342° |
| 2026-05-06 19:46 | 54.56482 | 11.90025 | 16812 ft | 334 kts | 5° |
| 2026-05-06 19:46 | 54.58696 | 11.91213 | 16437 ft | 337 kts | 27° |
| 2026-05-06 19:47 | 54.60688 | 11.93339 | 16059 ft | 336 kts | 31° |
| 2026-05-06 19:47 | 54.62650 | 11.95516 | 15714 ft | 334 kts | 31° |
| 2026-05-06 19:47 | 54.64595 | 11.97685 | 15386 ft | 332 kts | 31° |
| 2026-05-06 19:47 | 54.66525 | 11.99838 | 15068 ft | 329 kts | 31° |
| 2026-05-06 19:48 | 54.68438 | 12.01975 | 14752 ft | 326 kts | 31° |
| 2026-05-06 19:48 | 54.70340 | 12.04100 | 14453 ft | 324 kts | 32° |
| 2026-05-06 19:48 | 54.72224 | 12.06206 | 14151 ft | 321 kts | 31° |
| 2026-05-06 19:48 | 54.74087 | 12.08292 | 13858 ft | 318 kts | 32° |
| 2026-05-06 19:49 | 54.75940 | 12.10372 | 13528 ft | 316 kts | 31° |
| 2026-05-06 19:49 | 54.77775 | 12.12429 | 13172 ft | 314 kts | 31° |
| 2026-05-06 19:49 | 54.79602 | 12.14475 | 12835 ft | 311 kts | 31° |
| 2026-05-06 19:49 | 54.81414 | 12.16507 | 12487 ft | 309 kts | 31° |
| 2026-05-06 19:50 | 54.83215 | 12.18532 | 12137 ft | 308 kts | 32° |
| 2026-05-06 19:50 | 54.85007 | 12.20548 | 11788 ft | 306 kts | 32° |
| 2026-05-06 19:50 | 54.86786 | 12.22553 | 11437 ft | 304 kts | 32° |
| 2026-05-06 19:50 | 54.88551 | 12.24545 | 11095 ft | 302 kts | 32° |
| 2026-05-06 19:51 | 54.90309 | 12.26536 | 10750 ft | 300 kts | 32° |
| 2026-05-06 19:51 | 54.92052 | 12.28511 | 10410 ft | 299 kts | 32° |
| 2026-05-06 19:51 | 54.93791 | 12.30476 | 10067 ft | 297 kts | 32° |
| 2026-05-06 19:51 | 54.95504 | 12.32423 | 9821 ft | 291 kts | 33° |
| 2026-05-06 19:52 | 54.97174 | 12.34370 | 9522 ft | 287 kts | 33° |
| 2026-05-06 19:52 | 54.98819 | 12.36313 | 9194 ft | 283 kts | 34° |
| 2026-05-06 19:52 | 55.00438 | 12.38228 | 8976 ft | 281 kts | 34° |
| 2026-05-06 19:52 | 55.02048 | 12.40124 | 8669 ft | 278 kts | 34° |
| 2026-05-06 19:53 | 55.03644 | 12.41989 | 8322 ft | 275 kts | 34° |
| 2026-05-06 19:53 | 55.05227 | 12.43831 | 7986 ft | 272 kts | 34° |
| 2026-05-06 19:53 | 55.06788 | 12.45652 | 7648 ft | 268 kts | 34° |
| 2026-05-06 19:53 | 55.08330 | 12.47458 | 7314 ft | 265 kts | 34° |
| 2026-05-06 19:54 | 55.09851 | 12.49240 | 6963 ft | 262 kts | 34° |
| 2026-05-06 19:54 | 55.11361 | 12.51008 | 6607 ft | 260 kts | 34° |
| 2026-05-06 19:54 | 55.12857 | 12.52762 | 6245 ft | 258 kts | 35° |
| 2026-05-06 19:54 | 55.14342 | 12.54504 | 5969 ft | 255 kts | 35° |
| 2026-05-06 19:55 | 55.15823 | 12.56244 | 5976 ft | 257 kts | 35° |
| 2026-05-06 19:55 | 55.17307 | 12.57994 | 5974 ft | 258 kts | 35° |
| 2026-05-06 19:55 | 55.18793 | 12.59749 | 5986 ft | 258 kts | 35° |
| 2026-05-06 19:55 | 55.20281 | 12.61506 | 5984 ft | 258 kts | 35° |
| 2026-05-06 19:56 | 55.21769 | 12.63261 | 5984 ft | 258 kts | 35° |
| 2026-05-06 19:56 | 55.23290 | 12.64859 | 5984 ft | 259 kts | 26° |
| 2026-05-06 19:56 | 55.24978 | 12.65970 | 5987 ft | 260 kts | 19° |
| 2026-05-06 19:56 | 55.26702 | 12.66938 | 5985 ft | 260 kts | 19° |
| 2026-05-06 19:57 | 55.28394 | 12.68053 | 5981 ft | 260 kts | 24° |
| 2026-05-06 19:57 | 55.30046 | 12.69328 | 5983 ft | 260 kts | 25° |
| 2026-05-06 19:57 | 55.31692 | 12.70648 | 5983 ft | 260 kts | 26° |
| 2026-05-06 19:57 | 55.33332 | 12.71973 | 5989 ft | 260 kts | 26° |
| 2026-05-06 19:58 | 55.34972 | 12.73300 | 5990 ft | 260 kts | 26° |
| 2026-05-06 19:58 | 55.36614 | 12.74626 | 5994 ft | 260 kts | 25° |
| 2026-05-06 19:58 | 55.38259 | 12.75948 | 5986 ft | 260 kts | 25° |
| 2026-05-06 19:58 | 55.39902 | 12.77259 | 5915 ft | 259 kts | 25° |
| 2026-05-06 19:59 | 55.41537 | 12.78565 | 5510 ft | 257 kts | 26° |
| 2026-05-06 19:59 | 55.43160 | 12.79867 | 5265 ft | 256 kts | 26° |
| 2026-05-06 19:59 | 55.44790 | 12.81174 | 5271 ft | 258 kts | 26° |
| 2026-05-06 19:59 | 55.46427 | 12.82489 | 5268 ft | 259 kts | 26° |
| 2026-05-06 20:00 | 55.48064 | 12.83806 | 5269 ft | 259 kts | 25° |
| 2026-05-06 20:00 | 55.49703 | 12.85123 | 5275 ft | 259 kts | 25° |
| 2026-05-06 20:00 | 55.51344 | 12.86440 | 5277 ft | 259 kts | 25° |
| 2026-05-06 20:00 | 55.52982 | 12.87756 | 5270 ft | 259 kts | 25° |
| 2026-05-06 20:01 | 55.54620 | 12.89073 | 5275 ft | 259 kts | 25° |
| 2026-05-06 20:01 | 55.56253 | 12.90388 | 5022 ft | 257 kts | 25° |
| 2026-05-06 20:01 | 55.57880 | 12.91699 | 4567 ft | 256 kts | 26° |
| 2026-05-06 20:01 | 55.59501 | 12.93005 | 4148 ft | 256 kts | 26° |
| 2026-05-06 20:02 | 55.61095 | 12.94293 | 3739 ft | 255 kts | 26° |
| 2026-05-06 20:02 | 55.62701 | 12.95595 | 3339 ft | 253 kts | 27° |
| 2026-05-06 20:02 | 55.64299 | 12.96891 | 3268 ft | 254 kts | 27° |
| 2026-05-06 20:02 | 55.65908 | 12.98199 | 3273 ft | 254 kts | 27° |
| 2026-05-06 20:03 | 55.67464 | 12.99462 | 3268 ft | 237 kts | 27° |
| 2026-05-06 20:03 | 55.68920 | 13.00640 | 3269 ft | 227 kts | 27° |
| 2026-05-06 20:03 | 55.70347 | 13.01799 | 3272 ft | 225 kts | 27° |
| 2026-05-06 20:03 | 55.71732 | 13.02922 | 3270 ft | 211 kts | 27° |
| 2026-05-06 20:04 | 55.73090 | 13.03760 | 3271 ft | 209 kts | 7° |
| 2026-05-06 20:04 | 55.74503 | 13.03212 | 3302 ft | 214 kts | 331° |
| 2026-05-06 20:04 | 55.75570 | 13.01372 | 3277 ft | 216 kts | 309° |
| 2026-05-06 20:04 | 55.76226 | 12.98998 | 3263 ft | 217 kts | 279° |
| 2026-05-06 20:05 | 55.76269 | 12.96331 | 3271 ft | 217 kts | 267° |
| 2026-05-06 20:05 | 55.76190 | 12.93657 | 3272 ft | 217 kts | 265° |
| 2026-05-06 20:05 | 55.76095 | 12.90987 | 3273 ft | 217 kts | 265° |
| 2026-05-06 20:05 | 55.75810 | 12.88383 | 3278 ft | 215 kts | 246° |
| 2026-05-06 20:06 | 55.75004 | 12.86192 | 3275 ft | 212 kts | 223° |
| 2026-05-06 20:06 | 55.73903 | 12.84449 | 3275 ft | 212 kts | 219° |
| 2026-05-06 20:06 | 55.72793 | 12.82718 | 3143 ft | 213 kts | 219° |
| 2026-05-06 20:06 | 55.71676 | 12.80975 | 2603 ft | 212 kts | 219° |
| 2026-05-06 20:07 | 55.70596 | 12.79288 | 2251 ft | 202 kts | 219° |
| 2026-05-06 20:07 | 55.69586 | 12.77712 | 1965 ft | 185 kts | 218° |
| 2026-05-06 20:07 | 55.68655 | 12.76261 | 1709 ft | 171 kts | 218° |
| 2026-05-06 20:07 | 55.67797 | 12.74923 | 1492 ft | 156 kts | 218° |
| 2026-05-06 20:08 | 55.67010 | 12.73700 | 1269 ft | 147 kts | 218° |
| 2026-05-06 20:08 | 55.66255 | 12.72529 | 1063 ft | 143 kts | 218° |
| 2026-05-06 20:08 | 55.65511 | 12.71383 | 853 ft | 140 kts | 218° |
| 2026-05-06 20:08 | 55.64786 | 12.70247 | 675 ft | 138 kts | 219° |
| 2026-05-06 20:09 | 55.64069 | 12.69142 | 475 ft | 137 kts | 217° |
| 2026-05-06 20:09 | 55.63355 | 12.68048 | 336 ft | 136 kts | 220° |
| 2026-05-06 20:09 | 55.62656 | 12.66929 | 112 ft | 133 kts | 219° |
| 2026-05-06 20:09 | 55.61976 | 12.65890 | 29 ft | 118 kts | 219° |
| 2026-05-06 20:10 | 55.61491 | 12.65146 | 24 ft | 56 kts | 223° |
| 2026-05-06 20:10 | 55.61341 | 12.64887 | 27 ft | 30 kts | 229° |
| 2026-05-06 20:10 | 55.61226 | 12.64487 | 24 ft | 36 kts | 257° |
| 2026-05-06 20:10 | 55.61200 | 12.64303 | 24 ft | 4 kts | 254° |
| 2026-05-06 20:11 | 55.61194 | 12.64265 | 24 ft | 4 kts | 253° |
| 2026-05-06 20:11 | 55.61198 | 12.64144 | 25 ft | 16 kts | 302° |
| 2026-05-06 20:11 | 55.61335 | 12.64169 | 24 ft | 27 kts | 38° |
| 2026-05-06 20:11 | 55.61493 | 12.64357 | 25 ft | 30 kts | 28° |
| 2026-05-06 20:12 | 55.61656 | 12.64539 | 26 ft | 24 kts | 30° |
| 2026-05-06 20:12 | 55.61817 | 12.64533 | 26 ft | 24 kts | 348° |
| 2026-05-06 20:12 | 55.61984 | 12.64481 | 25 ft | 25 kts | 350° |
| 2026-05-06 20:12 | 55.62096 | 12.64444 | 25 ft | 0 kts | 349° |
| 2026-05-06 20:13 | 55.62112 | 12.64439 | 24 ft | 0 kts | 349° |
| 2026-05-06 20:13 | 55.62116 | 12.64438 | 23 ft | 0 kts | 349° |
| 2026-05-06 20:14 | 55.62123 | 12.64435 | 23 ft | 7 kts | 349° |
| 2026-05-06 20:14 | 55.62240 | 12.64384 | 22 ft | 22 kts | 330° |
| 2026-05-06 20:14 | 55.62353 | 12.64091 | 22 ft | 36 kts | 302° |
| 2026-05-06 20:15 | 55.62511 | 12.63787 | 25 ft | 31 kts | 350° |
| 2026-05-06 20:15 | 55.62681 | 12.63845 | 24 ft | 19 kts | 31° |
| 2026-05-06 20:15 | 55.62794 | 12.63978 | 24 ft | 19 kts | 36° |
| 2026-05-06 20:15 | 55.62871 | 12.64062 | 24 ft | 8 kts | 12° |
| 2026-05-06 20:16 | 55.62877 | 12.64065 | 24 ft | 0 kts | 12° |